Time;durP1;ratioP1;P1;durP2;ratioP2;P2;SDS_P1;SDS_P2;PMS_P1;PMS_P2;Temp;Humidity;BMP_temperature;BMP_pressure;BME280_temperature;BME280_humidity;BME280_pressure;Samples;Min_cycle;Max_cycle;Signal;HPM_P1;HPM_P2
2023/07/17 00:00:45;;;;;;;6.50;5.90;;;;;;;22.05;78.98;97995.76;106634;1282;22585;-83
2023/07/17 00:03:33;;;;;;;7.90;5.90;;;;;;;22.06;78.56;97992.58;106730;1282;23194;-82
2023/07/17 00:06:00;;;;;;;6.80;6.00;;;;;;;22.01;78.52;97996.27;106819;1282;24209;-82
2023/07/17 00:08:26;;;;;;;6.20;5.60;;;;;;;21.96;78.79;97993.99;106826;1282;25305;-82
2023/07/17 00:10:53;;;;;;;7.50;5.40;;;;;;;21.97;78.84;97997.15;106881;1282;22539;-82
2023/07/17 00:13:19;;;;;;;6.40;5.50;;;;;;;21.81;80.17;97996.86;106844;1282;22560;-82
2023/07/17 00:15:46;;;;;;;10.30;5.40;;;;;;;21.66;80.10;97996.01;106775;1282;25410;-81
2023/07/17 00:18:13;;;;;;;6.60;5.50;;;;;;;21.66;79.91;97997.10;106816;1282;24270;-81
2023/07/17 00:20:39;;;;;;;9.00;5.50;;;;;;;21.64;80.08;98001.48;106808;1282;25483;-82
2023/07/17 00:23:06;;;;;;;7.80;5.50;;;;;;;21.53;80.34;97999.34;106794;1282;22753;-82
2023/07/17 00:25:35;;;;;;;7.10;5.30;;;;;;;21.50;80.35;97995.06;106863;1282;22547;-82
2023/07/17 00:28:02;;;;;;;8.50;4.80;;;;;;;21.51;80.08;97993.67;106793;1282;22535;-81
2023/07/17 00:30:29;;;;;;;7.90;5.10;;;;;;;21.51;80.54;97989.38;106835;1282;22666;-81
2023/07/17 00:32:56;;;;;;;7.70;5.30;;;;;;;21.50;81.10;97986.15;106691;1282;22704;-81
2023/07/17 00:35:22;;;;;;;9.30;5.30;;;;;;;21.45;80.52;97990.69;106799;1282;22541;-82
2023/07/17 00:37:51;;;;;;;6.40;4.90;;;;;;;21.41;80.68;97985.29;106984;1282;25359;-81
2023/07/17 00:40:17;;;;;;;5.90;4.70;;;;;;;21.44;81.49;97984.48;106835;1282;22583;-81
2023/07/17 00:42:44;;;;;;;7.30;5.00;;;;;;;21.49;80.97;97979.23;106779;1282;22527;-81
2023/07/17 00:45:11;;;;;;;4.90;4.40;;;;;;;21.50;80.95;97974.64;106785;1282;25253;-80
2023/07/17 00:47:38;;;;;;;9.70;4.90;;;;;;;21.52;80.64;97970.83;106875;1282;22640;-79
2023/07/17 00:50:05;;;;;;;5.00;4.50;;;;;;;21.54;80.97;97968.10;106780;1282;22529;-80
2023/07/17 00:52:33;;;;;;;6.00;5.10;;;;;;;21.58;80.95;97970.44;106804;1282;25240;-80
2023/07/17 00:55:00;;;;;;;8.00;4.50;;;;;;;21.66;80.80;97971.51;106786;1282;22639;-81
2023/07/17 00:57:27;;;;;;;6.80;4.70;;;;;;;21.67;81.66;97967.20;106766;1282;25346;-81
2023/07/17 00:59:54;;;;;;;6.40;4.60;;;;;;;21.63;81.12;97961.25;106810;1282;22588;-81
2023/07/17 01:02:22;;;;;;;8.10;4.40;;;;;;;21.65;81.37;97963.39;106808;1282;22557;-81
2023/07/17 01:04:48;;;;;;;5.40;4.40;;;;;;;21.50;82.06;97962.17;106767;1282;22560;-80
2023/07/17 01:07:15;;;;;;;6.50;4.50;;;;;;;21.45;81.90;97958.34;106861;1282;22751;-82
2023/07/17 01:09:42;;;;;;;7.30;5.00;;;;;;;21.40;83.17;97967.11;106898;1282;25386;-82
2023/07/17 01:12:09;;;;;;;7.60;4.30;;;;;;;21.22;83.89;97964.61;106809;1282;25554;-81
2023/07/17 01:14:36;;;;;;;5.40;4.50;;;;;;;21.05;84.57;97959.58;106806;1282;22537;-81
2023/07/17 01:17:02;;;;;;;8.60;4.60;;;;;;;20.91;85.45;97963.48;106878;1282;22590;-81
2023/07/17 01:19:29;;;;;;;5.10;4.60;;;;;;;20.77;85.88;97964.42;106823;1282;22642;-81
2023/07/17 01:22:01;;;;;;;5.90;4.70;;;;;;;20.67;86.18;97970.19;106815;1282;23909;-81
2023/07/17 01:24:27;;;;;;;5.40;4.00;;;;;;;20.62;86.52;97972.28;106903;1282;22541;-80
2023/07/17 01:26:54;;;;;;;7.10;4.00;;;;;;;20.68;86.31;97971.67;106818;1282;24102;-81
2023/07/17 01:29:21;;;;;;;6.10;4.50;;;;;;;20.82;85.67;97965.44;106769;1259;25518;-82
2023/07/17 01:31:47;;;;;;;7.90;4.00;;;;;;;20.94;85.24;97960.78;106684;1282;22542;-81
2023/07/17 01:34:14;;;;;;;5.00;3.80;;;;;;;21.03;84.97;97968.39;106767;1282;24358;-81
2023/07/17 01:36:40;;;;;;;5.80;4.00;;;;;;;21.13;84.80;97972.91;106784;1282;24217;-81
2023/07/17 01:39:07;;;;;;;5.10;3.80;;;;;;;21.27;84.52;97971.90;106876;1282;22679;-82
2023/07/17 01:41:34;;;;;;;6.10;3.60;;;;;;;21.46;84.54;97976.13;107120;1282;22540;-81
2023/07/17 01:44:00;;;;;;;7.30;4.00;;;;;;;21.61;84.07;97966.47;106653;1282;22546;-81
2023/07/17 01:46:27;;;;;;;5.00;3.50;;;;;;;21.72;83.91;97968.05;106763;1282;22532;-83
2023/07/17 01:48:54;;;;;;;5.10;3.80;;;;;;;21.82;83.72;97966.23;106720;1282;22756;-81
2023/07/17 01:51:20;;;;;;;4.60;3.60;;;;;;;21.89;83.20;97964.36;106440;1282;22532;-82
2023/07/17 01:53:47;;;;;;;6.70;3.80;;;;;;;21.96;83.05;97964.52;106608;1282;25441;-82
2023/07/17 01:56:14;;;;;;;5.90;3.90;;;;;;;22.03;82.39;97969.02;106730;1282;22549;-83
2023/07/17 01:58:41;;;;;;;4.90;3.90;;;;;;;22.00;81.63;97975.15;106791;1282;25242;-83
2023/07/17 02:01:08;;;;;;;3.90;3.50;;;;;;;21.89;81.43;97980.73;106639;1282;22530;-83
2023/07/17 02:03:36;;;;;;;7.30;3.80;;;;;;;21.83;81.80;97984.27;106767;1282;22655;-83
2023/07/17 02:06:03;;;;;;;6.60;4.20;;;;;;;21.77;81.63;97978.92;106721;1282;23911;-84
2023/07/17 02:08:29;;;;;;;5.00;3.30;;;;;;;21.81;82.27;97983.98;106616;1282;22601;-83
2023/07/17 02:10:56;;;;;;;7.10;3.50;;;;;;;21.89;82.45;97981.84;106758;1282;22566;-83
2023/07/17 02:13:22;;;;;;;6.50;3.30;;;;;;;21.94;81.86;97984.58;106766;1282;23898;-84
2023/07/17 02:15:49;;;;;;;6.50;4.10;;;;;;;21.96;81.76;97982.94;106726;1282;23035;-83
2023/07/17 02:18:16;;;;;;;6.00;4.10;;;;;;;21.94;81.35;97984.50;106759;1282;22681;-82
2023/07/17 02:20:44;;;;;;;8.00;5.10;;;;;;;21.89;81.16;97986.53;106724;1282;22549;-82
2023/07/17 02:23:11;;;;;;;6.50;5.00;;;;;;;21.87;81.71;97982.83;106783;1282;25346;-83
2023/07/17 02:25:38;;;;;;;7.40;5.60;;;;;;;21.90;81.74;97982.31;106601;1282;23838;-84
2023/07/17 02:28:05;;;;;;;7.00;5.80;;;;;;;21.90;81.32;97978.64;106783;1282;22622;-84
2023/07/17 02:30:31;;;;;;;5.50;5.00;;;;;;;21.91;81.73;97974.25;106774;1278;22533;-85
2023/07/17 02:32:58;;;;;;;8.30;5.80;;;;;;;21.96;81.97;97970.80;106658;1282;22616;-84
2023/07/17 02:35:25;;;;;;;10.80;5.30;;;;;;;21.99;81.83;97972.95;106860;1282;22601;-84
2023/07/17 02:37:51;;;;;;;5.80;5.10;;;;;;;22.01;82.01;97968.27;106833;1282;22646;-85
2023/07/17 02:40:18;;;;;;;5.00;4.50;;;;;;;22.02;81.50;97967.58;106890;1282;25945;-84
2023/07/17 02:42:45;;;;;;;5.30;4.80;;;;;;;22.02;81.40;97965.77;107354;1282;22703;-84
2023/07/17 02:45:12;;;;;;;6.80;4.60;;;;;;;22.03;81.23;97972.30;107400;1282;25298;-87
2023/07/17 02:47:38;;;;;;;9.40;4.80;;;;;;;22.03;81.03;97979.81;106894;1282;22542;-87
2023/07/17 02:50:07;;;;;;;5.10;4.30;;;;;;;21.93;80.55;97992.08;106813;1282;23913;-83
2023/07/17 02:52:36;;;;;;;5.40;4.30;;;;;;;21.75;80.64;97997.79;106875;1282;26744;-81
2023/07/17 02:55:07;;;;;;;4.50;4.00;;;;;;;21.55;81.06;98004.08;107198;1282;25311;-82
2023/07/17 02:57:35;;;;;;;6.90;3.90;;;;;;;21.46;81.41;98003.23;108676;1282;24298;-82
2023/07/17 03:00:17;;;;;;;5.60;4.10;;;;;;;21.47;82.18;98006.77;108854;1282;22815;-80
2023/07/17 03:02:48;;;;;;;9.20;4.60;;;;;;;21.56;82.21;98004.64;108941;1282;22986;-81
2023/07/17 03:05:15;;;;;;;4.80;4.00;;;;;;;21.65;82.60;98007.77;108672;1282;22713;-80
2023/07/17 03:11:58;;;;;;;9.70;4.30;;;;;;;21.74;81.79;97999.83;106734;1282;22540;-81
2023/07/17 03:14:25;;;;;;;5.20;3.90;;;;;;;21.73;82.20;97991.17;106793;1282;23951;-82
2023/07/17 03:16:52;;;;;;;5.10;3.80;;;;;;;21.78;82.26;97986.01;106698;1282;24391;-81
2023/07/17 03:19:18;;;;;;;5.40;3.50;;;;;;;21.84;82.34;97985.14;106795;1282;22557;-81
2023/07/17 03:21:45;;;;;;;4.00;3.30;;;;;;;21.92;82.24;97980.06;106887;1282;23517;-81
2023/07/17 03:24:12;;;;;;;6.50;3.80;;;;;;;21.99;81.98;97980.95;106817;1282;25410;-81
2023/07/17 03:26:38;;;;;;;5.80;3.60;;;;;;;22.02;81.85;97980.98;106751;1282;23460;-82
2023/07/17 03:29:06;;;;;;;4.80;4.30;;;;;;;22.06;81.74;97981.20;106808;1282;23298;-82
2023/07/17 03:31:34;;;;;;;5.40;3.50;;;;;;;22.06;81.11;97984.64;106996;1282;25305;-81
2023/07/17 03:34:01;;;;;;;5.80;4.20;;;;;;;21.95;80.81;97993.37;106726;1282;22539;-81
2023/07/17 03:36:28;;;;;;;8.30;4.40;;;;;;;21.88;80.89;97997.50;106795;1282;22558;-81
2023/07/17 03:38:54;;;;;;;5.80;4.20;;;;;;;21.82;80.83;97998.13;106756;1282;25349;-82
2023/07/17 03:41:21;;;;;;;6.60;4.20;;;;;;;21.73;80.67;97998.86;106689;1282;22588;-82
2023/07/17 03:43:48;;;;;;;6.60;4.80;;;;;;;21.68;81.54;98003.09;106811;1282;22584;-82
2023/07/17 03:46:16;;;;;;;5.00;3.70;;;;;;;21.73;81.62;98004.27;107044;1282;23910;-82
2023/07/17 03:48:44;;;;;;;5.50;3.80;;;;;;;21.80;82.37;98003.74;106657;1282;24511;-82
2023/07/17 03:51:11;;;;;;;5.10;3.80;;;;;;;21.92;81.79;98004.84;106974;1282;22546;-82
2023/07/17 03:53:38;;;;;;;10.00;4.50;;;;;;;21.95;81.77;98005.43;106827;1282;22533;-82
2023/07/17 03:56:05;;;;;;;5.70;4.30;;;;;;;22.01;82.44;98008.09;106677;1282;22721;-82
2023/07/17 03:58:32;;;;;;;5.90;3.80;;;;;;;22.07;81.97;98011.86;106818;1282;23170;-82
2023/07/17 04:00:59;;;;;;;5.40;4.00;;;;;;;22.08;81.86;98015.48;106778;1282;24872;-81
2023/07/17 04:03:29;;;;;;;7.50;3.90;;;;;;;22.11;82.26;98013.80;106864;1282;24102;-83
2023/07/17 04:05:56;;;;;;;6.50;4.40;;;;;;;22.18;82.02;98011.95;106746;1282;24439;-82
2023/07/17 04:08:23;;;;;;;5.50;4.30;;;;;;;22.23;81.66;98011.86;106748;1282;22581;-80
2023/07/17 04:10:50;;;;;;;5.70;4.40;;;;;;;22.24;81.56;98009.68;106695;1282;23952;-81
2023/07/17 04:13:18;;;;;;;7.00;4.30;;;;;;;22.15;81.87;98011.44;106761;1282;23336;-82
2023/07/17 04:15:45;;;;;;;7.60;4.10;;;;;;;22.04;82.02;98014.09;106622;1282;25396;-82
2023/07/17 04:18:14;;;;;;;4.10;3.60;;;;;;;21.99;82.30;98003.84;106805;1282;24288;-82
2023/07/17 04:20:42;;;;;;;8.40;4.20;;;;;;;22.10;82.17;98006.10;106754;1282;22555;-82
2023/07/17 04:23:08;;;;;;;6.20;3.90;;;;;;;22.16;82.24;97995.99;106764;1282;22877;-82
2023/07/17 04:25:39;;;;;;;5.60;4.00;;;;;;;22.26;82.34;97992.06;106656;1282;25370;-81
2023/07/17 04:28:06;;;;;;;3.70;3.30;;;;;;;22.36;82.49;97993.89;106783;1282;22544;-82
2023/07/17 04:30:37;;;;;;;5.90;4.10;;;;;;;22.43;82.26;97994.77;106669;1282;24217;-81
2023/07/17 04:33:05;;;;;;;4.70;3.60;;;;;;;22.47;82.26;98001.09;106604;1282;24271;-81
2023/07/17 04:35:36;;;;;;;7.10;3.60;;;;;;;22.49;82.47;98006.67;106630;1282;22659;-80
2023/07/17 04:38:03;;;;;;;7.80;3.80;;;;;;;22.44;82.72;98009.30;106774;1282;23397;-79
2023/07/17 04:40:30;;;;;;;6.00;3.50;;;;;;;22.44;82.73;98010.55;106757;1282;24239;-79
2023/07/17 04:43:00;;;;;;;4.10;3.40;;;;;;;22.48;82.45;98008.94;106669;1282;22540;-80
2023/07/17 04:45:27;;;;;;;4.90;3.30;;;;;;;22.53;82.71;98007.66;106590;1282;178466;-79
2023/07/17 04:47:54;;;;;;;4.50;3.20;;;;;;;22.62;82.44;98003.85;106674;1282;25461;-80
2023/07/17 04:50:27;;;;;;;6.20;3.60;;;;;;;22.75;82.48;98001.23;106770;1282;22577;-80
2023/07/17 04:52:54;;;;;;;5.60;3.60;;;;;;;22.88;82.46;98000.42;106657;1282;22546;-81
2023/07/17 04:55:22;;;;;;;4.30;3.60;;;;;;;22.92;82.14;98004.70;106659;1282;25508;-80
2023/07/17 04:57:49;;;;;;;4.50;3.50;;;;;;;22.88;81.83;98008.42;106603;1282;22544;-80
2023/07/17 05:00:18;;;;;;;6.70;3.60;;;;;;;22.84;82.09;98010.27;106788;1282;24306;-81
2023/07/17 05:02:44;;;;;;;4.50;3.30;;;;;;;22.86;82.34;98011.23;106759;1282;22553;-80
2023/07/17 05:05:12;;;;;;;4.40;3.30;;;;;;;22.97;82.47;98005.46;106804;1282;25346;-80
2023/07/17 05:07:41;;;;;;;5.70;3.30;;;;;;;23.12;82.46;98008.22;106777;1282;22551;-80
2023/07/17 05:10:10;;;;;;;4.50;3.80;;;;;;;23.25;82.07;98005.73;106620;1282;22553;-80
2023/07/17 05:12:38;;;;;;;5.80;4.00;;;;;;;23.32;81.81;98003.36;106602;1282;23303;-81
2023/07/17 05:15:06;;;;;;;5.70;4.00;;;;;;;23.40;81.61;98007.42;106769;1282;24345;-80
2023/07/17 05:17:34;;;;;;;6.50;3.70;;;;;;;23.40;81.17;98010.48;106872;1282;22705;-82
2023/07/17 05:20:05;;;;;;;6.40;3.60;;;;;;;23.39;80.93;98012.52;106907;1282;22658;-83
2023/07/17 05:22:32;;;;;;;6.90;3.80;;;;;;;23.39;80.91;98025.88;106775;1282;25324;-81
2023/07/17 05:25:00;;;;;;;6.50;3.80;;;;;;;23.40;81.13;98040.50;106802;1282;22540;-81
2023/07/17 05:27:26;;;;;;;6.90;4.50;;;;;;;23.33;81.18;98073.35;106792;1282;23250;-79
2023/07/17 05:29:53;;;;;;;4.60;4.10;;;;;;;23.22;81.18;98163.50;106683;1282;22567;-78
2023/07/17 05:32:20;;;;;;;27.10;8.50;;;;;;;22.96;81.71;98202.85;106583;1282;22699;-78
2023/07/17 05:34:47;;;;;;;12.70;8.10;;;;;;;22.54;83.25;98232.23;106332;1282;22749;-77
2023/07/17 05:37:15;;;;;;;11.80;7.50;;;;;;;22.17;84.68;98238.94;106363;1282;24790;-77
2023/07/17 05:39:44;;;;;;;6.60;4.20;;;;;;;21.82;87.41;98269.37;106885;1282;22547;-77
2023/07/17 05:42:12;;;;;;;8.00;4.10;;;;;;;21.18;92.88;98246.96;106849;1282;25464;-79
2023/07/17 05:44:39;;;;;;;8.20;4.60;;;;;;;19.96;96.03;98158.86;106277;1282;24211;-78
2023/07/17 05:47:05;;;;;;;7.10;3.60;;;;;;;18.82;94.26;98166.59;106801;1282;25354;-79
2023/07/17 05:49:34;;;;;;;5.20;3.20;;;;;;;18.13;96.28;98205.52;106682;1282;22572;-78
2023/07/17 05:52:01;;;;;;;6.80;3.80;;;;;;;17.84;97.95;98208.31;106691;1282;25363;-78
2023/07/17 05:54:29;;;;;;;5.00;3.50;;;;;;;17.83;100.00;98210.26;106620;1281;24210;-78
2023/07/17 05:56:55;;;;;;;5.20;3.90;;;;;;;17.89;100.00;98223.68;106710;1280;22669;-79
2023/07/17 05:59:22;;;;;;;5.40;3.60;;;;;;;17.99;100.00;98210.44;106114;1277;22545;-77
2023/07/17 06:01:48;;;;;;;5.20;4.10;;;;;;;18.02;100.00;98210.41;106322;1280;23147;-78
2023/07/17 06:04:15;;;;;;;7.30;3.70;;;;;;;17.94;100.00;98204.89;106733;1282;22624;-80
2023/07/17 06:06:42;;;;;;;6.20;3.70;;;;;;;17.87;100.00;98200.23;106907;1282;22621;-79
2023/07/17 06:09:08;;;;;;;7.80;5.10;;;;;;;17.84;100.00;98186.38;106754;1282;22546;-77
2023/07/17 06:11:36;;;;;;;5.50;4.50;;;;;;;17.86;100.00;98168.98;106788;1281;22541;-83
2023/07/17 06:14:09;;;;;;;5.20;4.70;;;;;;;17.85;100.00;98162.64;106677;1275;22573;-78
2023/07/17 06:16:35;;;;;;;6.10;4.60;;;;;;;17.84;100.00;98152.41;106354;1278;24323;-78
2023/07/17 06:19:03;;;;;;;6.10;4.50;;;;;;;17.77;100.00;98137.36;106781;1265;24193;-78
2023/07/17 06:21:29;;;;;;;7.10;5.10;;;;;;;17.74;100.00;98126.59;106621;1282;22532;-78
2023/07/17 06:23:56;;;;;;;7.00;5.10;;;;;;;17.73;100.00;98119.09;106407;1282;22779;-79
2023/07/17 06:26:22;;;;;;;10.40;9.20;;;;;;;17.75;100.00;98112.30;106717;1282;24249;-79
2023/07/17 06:28:50;;;;;;;27.20;24.10;;;;;;;17.79;100.00;98104.96;106817;1282;22582;-80
2023/07/17 06:31:17;;;;;;;18.40;16.50;;;;;;;17.85;100.00;98093.02;106884;1282;22652;-82
2023/07/17 06:33:44;;;;;;;16.20;9.40;;;;;;;17.89;100.00;98081.09;106909;1282;22663;-81
2023/07/17 06:36:10;;;;;;;6.30;5.30;;;;;;;17.95;100.00;98067.31;107265;1282;22560;-82
2023/07/17 06:38:37;;;;;;;7.30;5.00;;;;;;;18.02;100.00;98062.22;107927;1282;22531;-82
2023/07/17 06:41:04;;;;;;;6.40;4.60;;;;;;;18.06;100.00;98053.24;108136;1282;22551;-83
2023/07/17 06:43:31;;;;;;;8.20;4.60;;;;;;;18.14;100.00;98044.98;107701;1282;25429;-80
2023/07/17 06:45:57;;;;;;;6.40;4.50;;;;;;;18.19;100.00;98043.96;107657;1282;22540;-81
2023/07/17 06:48:24;;;;;;;6.40;4.80;;;;;;;18.24;100.00;98042.77;107048;1282;24132;-80
2023/07/17 06:50:51;;;;;;;5.50;3.90;;;;;;;18.31;100.00;98040.55;106748;1282;24204;-80
2023/07/17 06:53:18;;;;;;;6.20;3.70;;;;;;;18.39;100.00;98037.44;106689;1282;22613;-81
2023/07/17 06:55:44;;;;;;;6.00;4.30;;;;;;;18.46;100.00;98039.96;106485;1274;22658;-83
2023/07/17 06:58:11;;;;;;;5.10;4.00;;;;;;;18.52;100.00;98046.94;106698;1282;22844;-82
2023/07/17 07:00:38;;;;;;;5.30;4.10;;;;;;;18.58;100.00;98050.36;106700;1282;25225;-82
2023/07/17 07:03:04;;;;;;;5.00;3.90;;;;;;;18.67;100.00;98053.25;106735;1271;22670;-83
2023/07/17 07:05:31;;;;;;;5.60;4.20;;;;;;;18.83;100.00;98050.35;106680;1275;24208;-83
2023/07/17 07:07:57;;;;;;;5.80;4.10;;;;;;;18.99;100.00;98042.59;106648;1282;22587;-83
2023/07/17 07:10:24;;;;;;;5.00;3.60;;;;;;;19.13;100.00;98039.12;106674;1282;22550;-81
2023/07/17 07:12:51;;;;;;;5.40;3.50;;;;;;;19.25;100.00;98027.17;106547;1280;24358;-82
2023/07/17 07:15:17;;;;;;;4.90;3.20;;;;;;;19.36;100.00;98024.70;107458;1275;23359;-81
2023/07/17 07:17:44;;;;;;;7.60;3.70;;;;;;;19.44;100.00;98026.32;107387;1270;22656;-83
2023/07/17 07:20:11;;;;;;;4.80;3.20;;;;;;;19.55;100.00;98029.77;107580;1282;22530;-81
2023/07/17 07:22:38;;;;;;;5.40;3.60;;;;;;;19.68;100.00;98032.36;107699;1282;22569;-80
2023/07/17 07:25:05;;;;;;;7.20;3.60;;;;;;;19.82;100.00;98032.20;106919;1282;22654;-80
2023/07/17 07:27:32;;;;;;;5.70;4.10;;;;;;;19.94;100.00;98031.09;106980;1274;22684;-85
2023/07/17 07:29:59;;;;;;;6.10;3.50;;;;;;;19.97;100.00;98034.66;106833;1282;22652;-77
2023/07/17 07:32:25;;;;;;;6.70;3.40;;;;;;;20.11;100.00;98035.91;106980;1277;23178;-82
2023/07/17 07:34:52;;;;;;;6.90;3.30;;;;;;;20.24;100.00;98039.54;106917;1282;23249;-82
2023/07/17 07:37:19;;;;;;;7.20;3.70;;;;;;;20.35;100.00;98046.63;106818;1270;23165;-82
2023/07/17 07:39:45;;;;;;;5.80;3.00;;;;;;;20.42;100.00;98053.74;107089;1282;22553;-82
2023/07/17 07:42:13;;;;;;;5.50;3.40;;;;;;;20.52;100.00;98058.81;106837;1282;25289;-83
2023/07/17 07:44:40;;;;;;;5.40;3.20;;;;;;;20.53;100.00;98066.75;106803;1275;22600;-81
2023/07/17 07:47:06;;;;;;;4.30;3.20;;;;;;;20.60;100.00;98071.05;106800;1282;22550;-82
2023/07/17 07:49:33;;;;;;;5.60;3.50;;;;;;;20.69;100.00;98073.48;106806;1282;22590;-81
2023/07/17 07:52:00;;;;;;;9.50;3.80;;;;;;;20.75;100.00;98076.42;106893;1282;22645;-83
2023/07/17 07:54:26;;;;;;;4.00;3.00;;;;;;;20.86;100.00;98075.22;107552;1282;26526;-82
2023/07/17 07:56:53;;;;;;;5.50;3.60;;;;;;;20.99;100.00;98077.64;108861;1281;22589;-81
2023/07/17 07:59:28;;;;;;;10.30;3.60;;;;;;;21.08;100.00;98077.43;107382;1282;24254;-83
2023/07/17 08:01:54;;;;;;;6.90;4.10;;;;;;;21.12;100.00;98076.31;106838;1282;23940;-83
2023/07/17 08:04:21;;;;;;;8.80;3.60;;;;;;;21.16;100.00;98073.02;106754;1282;22589;-83
2023/07/17 08:06:48;;;;;;;8.80;3.70;;;;;;;21.19;100.00;98075.58;106662;1282;22637;-82
2023/07/17 08:09:14;;;;;;;11.20;4.80;;;;;;;21.20;100.00;98086.95;106798;1264;24236;-81
2023/07/17 08:11:41;;;;;;;97.60;11.80;;;;;;;21.20;100.00;98097.84;106648;1271;22652;-82
2023/07/17 08:14:08;;;;;;;16.20;5.90;;;;;;;21.21;100.00;98099.97;106767;1282;22901;-82
2023/07/17 08:16:35;;;;;;;9.20;4.00;;;;;;;21.26;100.00;98098.01;106904;1282;25367;-82
2023/07/17 08:19:01;;;;;;;5.20;3.80;;;;;;;21.27;100.00;98108.46;106845;1282;22572;-85
2023/07/17 08:21:28;;;;;;;6.80;4.30;;;;;;;21.18;100.00;98114.16;106875;1282;25375;-83
2023/07/17 08:23:55;;;;;;;8.00;4.20;;;;;;;21.09;100.00;98122.77;106821;1282;24146;-83
2023/07/17 08:26:21;;;;;;;12.80;5.20;;;;;;;21.02;100.00;98118.80;106849;1282;22548;-81
2023/07/17 08:28:48;;;;;;;36.10;8.10;;;;;;;21.05;100.00;98112.98;106891;1282;22638;-83
2023/07/17 08:31:14;;;;;;;37.80;8.80;;;;;;;21.18;100.00;98105.77;107116;1282;23078;-82
2023/07/17 08:33:41;;;;;;;74.20;10.60;;;;;;;21.38;100.00;98098.64;106889;1282;24253;-82
2023/07/17 08:36:08;;;;;;;124.00;18.90;;;;;;;21.63;100.00;98098.28;106957;1282;22617;-84
2023/07/17 08:38:34;;;;;;;128.80;16.40;;;;;;;21.75;100.00;98101.30;106877;1282;25366;-83
2023/07/17 08:41:02;;;;;;;20.80;6.00;;;;;;;21.78;100.00;98108.48;106823;1277;22544;-82
2023/07/17 08:43:29;;;;;;;22.20;6.20;;;;;;;21.82;100.00;98114.34;106876;1282;24195;-85
2023/07/17 08:45:57;;;;;;;15.10;5.50;;;;;;;21.91;100.00;98107.58;106864;1282;22580;-84
2023/07/17 08:48:28;;;;;;;11.20;4.00;;;;;;;22.09;100.00;98096.24;106875;1282;23311;-84
2023/07/17 08:50:57;;;;;;;7.70;3.70;;;;;;;22.26;100.00;98091.81;106853;1282;22698;-84
2023/07/17 08:53:24;;;;;;;10.80;4.30;;;;;;;22.45;100.00;98096.85;106876;1282;24285;-82
2023/07/17 08:55:54;;;;;;;7.40;4.20;;;;;;;22.57;100.00;98111.98;106650;1283;22700;-85
2023/07/17 08:58:23;;;;;;;5.50;3.60;;;;;;;22.67;100.00;98117.45;106824;1282;23045;-81
2023/07/17 09:00:52;;;;;;;6.30;3.50;;;;;;;22.83;100.00;98113.95;106808;1282;25355;-81
2023/07/17 09:03:19;;;;;;;6.30;3.60;;;;;;;22.93;100.00;98116.36;106836;1265;22558;-85
2023/07/17 09:05:47;;;;;;;5.60;3.40;;;;;;;22.98;100.00;98126.01;106896;1282;24311;-79
2023/07/17 09:08:13;;;;;;;9.10;3.60;;;;;;;23.03;100.00;98127.25;106765;1282;22628;-83
2023/07/17 09:10:40;;;;;;;6.50;3.50;;;;;;;23.03;100.00;98129.53;106998;1280;23131;-82
2023/07/17 09:13:07;;;;;;;8.90;3.50;;;;;;;22.99;100.00;98132.31;106650;1282;25340;-81
2023/07/17 09:15:34;;;;;;;4.50;3.20;;;;;;;22.88;100.00;98137.80;106849;1282;22688;-84
2023/07/17 09:18:02;;;;;;;5.70;2.90;;;;;;;22.79;100.00;98134.39;106760;1282;22566;-81
2023/07/17 09:20:29;;;;;;;7.70;3.00;;;;;;;22.83;100.00;98124.87;106791;1282;22579;-80
2023/07/17 09:23:00;;;;;;;5.20;3.20;;;;;;;22.94;100.00;98123.11;106689;1282;24337;-80
2023/07/17 09:25:28;;;;;;;6.20;3.20;;;;;;;23.07;100.00;98122.50;106905;1282;24236;-79
2023/07/17 09:27:56;;;;;;;4.50;3.30;;;;;;;23.14;100.00;98118.04;106752;1282;22569;-81
2023/07/17 09:30:25;;;;;;;8.00;3.30;;;;;;;23.18;100.00;98110.67;106795;1275;25294;-79
2023/07/17 09:32:52;;;;;;;7.10;3.40;;;;;;;23.23;100.00;98100.67;106813;1282;25265;-78
2023/07/17 09:35:20;;;;;;;7.00;3.40;;;;;;;23.31;100.00;98096.74;106806;1282;22674;-77
2023/07/17 09:37:47;;;;;;;6.40;3.30;;;;;;;23.41;100.00;98100.06;106709;1284;22544;-79
2023/07/17 09:40:19;;;;;;;8.40;3.80;;;;;;;23.45;100.00;98108.75;106733;1283;22553;-78
2023/07/17 09:42:52;;;;;;;45.30;5.00;;;;;;;23.45;99.39;98120.69;106866;1281;22572;-79
2023/07/17 09:45:20;;;;;;;19.20;4.40;;;;;;;23.34;95.88;98126.06;106753;1282;24257;-78
2023/07/17 09:47:50;;;;;;;5.20;3.10;;;;;;;23.30;96.38;98117.79;106816;1282;24253;-81
2023/07/17 09:50:19;;;;;;;5.20;3.10;;;;;;;23.44;94.70;98111.72;106813;1282;22575;-84
2023/07/17 09:52:49;;;;;;;5.10;3.00;;;;;;;23.67;94.41;98108.33;106899;1282;22600;-82
2023/07/17 09:55:22;;;;;;;5.40;3.40;;;;;;;23.87;93.69;98105.96;106689;1277;22649;-82
2023/07/17 09:57:52;;;;;;;8.50;3.80;;;;;;;24.06;93.61;98099.81;106823;1282;25458;-80
2023/07/17 10:00:21;;;;;;;6.60;5.00;;;;;;;24.11;90.55;98094.73;106886;1282;25314;-82
2023/07/17 10:03:10;;;;;;;5.50;3.00;;;;;;;24.08;89.01;98081.90;106938;1282;22575;-82
2023/07/17 10:05:38;;;;;;;5.50;3.10;;;;;;;24.01;89.48;98069.35;106859;1282;24308;-80
2023/07/17 10:08:10;;;;;;;6.30;2.70;;;;;;;23.95;89.26;98053.11;106694;1282;25426;-79
2023/07/17 10:10:37;;;;;;;6.10;2.70;;;;;;;23.85;88.29;98045.89;106995;1275;23234;-79
2023/07/17 10:13:07;;;;;;;5.70;3.10;;;;;;;23.74;87.81;98041.33;106874;1278;22584;-82
2023/07/17 10:15:34;;;;;;;4.10;2.90;;;;;;;23.58;87.93;98038.20;106982;1282;22655;-81
2023/07/17 10:18:01;;;;;;;4.60;2.80;;;;;;;23.48;88.03;98039.70;106881;1282;26530;-80
2023/07/17 10:20:33;;;;;;;4.80;2.80;;;;;;;23.42;86.91;98048.30;106882;1282;26055;-79
2023/07/17 10:23:01;;;;;;;6.70;3.20;;;;;;;23.35;86.71;98048.09;106980;1282;22582;-82
2023/07/17 10:25:29;;;;;;;6.40;3.40;;;;;;;23.27;85.96;98044.31;106914;1282;22536;-80
2023/07/17 10:28:01;;;;;;;6.90;3.30;;;;;;;23.18;86.28;98053.18;106892;1279;24415;-81
2023/07/17 10:30:34;;;;;;;8.60;3.70;;;;;;;23.12;85.82;98056.67;107000;1282;22532;-82
2023/07/17 10:33:14;;;;;;;5.30;3.40;;;;;;;23.06;85.46;98055.19;107078;1282;25288;-81
2023/07/17 10:35:52;;;;;;;7.00;3.10;;;;;;;23.04;85.80;98043.63;106831;1282;22553;-81
2023/07/17 10:38:30;;;;;;;8.20;3.30;;;;;;;22.93;84.84;98037.54;106850;1282;22654;-81
2023/07/17 10:41:04;;;;;;;6.50;3.30;;;;;;;22.86;85.21;98034.48;106864;1282;22560;-81
2023/07/17 10:43:34;;;;;;;5.30;3.30;;;;;;;22.80;85.44;98033.70;106983;1282;22582;-81
2023/07/17 10:46:08;;;;;;;6.40;3.80;;;;;;;22.65;85.09;98036.60;106890;1282;25421;-81
2023/07/17 10:48:35;;;;;;;7.20;3.80;;;;;;;22.52;85.50;98044.30;106917;1282;25385;-80
2023/07/17 10:51:02;;;;;;;6.70;3.70;;;;;;;22.43;85.54;98058.46;106926;1282;22596;-81
2023/07/17 10:53:29;;;;;;;8.10;3.20;;;;;;;22.36;85.87;98067.46;106764;1282;24193;-82
2023/07/17 10:55:55;;;;;;;5.70;3.20;;;;;;;22.34;85.25;98081.41;106801;1282;22600;-78
2023/07/17 10:58:23;;;;;;;5.50;3.20;;;;;;;22.20;84.95;98099.80;106784;1282;22549;-78
2023/07/17 11:00:50;;;;;;;6.00;3.40;;;;;;;21.96;85.16;98122.31;106808;1282;22553;-79
2023/07/17 11:03:22;;;;;;;7.30;4.20;;;;;;;21.72;85.38;98135.10;106861;1282;23916;-80
2023/07/17 11:05:53;;;;;;;6.40;3.90;;;;;;;21.42;86.57;98142.17;106754;1282;24388;-81
2023/07/17 11:08:20;;;;;;;8.90;4.00;;;;;;;21.28;86.98;98138.08;106965;1282;25257;-81
2023/07/17 11:10:46;;;;;;;8.70;3.80;;;;;;;21.10;88.29;98129.27;106938;1282;22546;-80
2023/07/17 11:13:13;;;;;;;8.70;4.10;;;;;;;20.98;87.88;98122.40;107035;1282;22603;-80
2023/07/17 11:15:42;;;;;;;26.10;5.70;;;;;;;20.92;87.84;98130.59;107072;1282;22517;-80
2023/07/17 11:18:09;;;;;;;10.90;5.80;;;;;;;20.87;89.21;98143.08;107256;1282;22553;-80
2023/07/17 11:20:36;;;;;;;10.60;5.30;;;;;;;20.79;89.01;98160.75;106901;1282;25470;-80
2023/07/17 11:23:05;;;;;;;35.60;6.20;;;;;;;20.72;88.88;98169.84;106736;1282;22543;-81
2023/07/17 11:25:35;;;;;;;52.90;6.70;;;;;;;20.67;89.64;98168.56;106838;1282;25413;-81
2023/07/17 11:28:08;;;;;;;22.70;5.50;;;;;;;20.68;89.61;98153.02;106873;1279;22524;-80